Nearby METAR Reports

 

KSJC - San Jose, California, USA
Distance from station: NE 14km
Actualización: 25/01/2021 10:53
Despejado
Despejado
 Viento del NO
Viento: NO 24 km/h, Racha: 50 km/h
Temperatura: 7°C
Wind Chill: 3°C
Rocío: 1°C
Humedad: 66%
Barómetro: 1010.2 hPa
Clouds: Despejado
Visibility: 16 km
2021/01/25 09:53 KSJC 250953Z AUTO 31013G27KT 10SM CLR 07/01 A2983 RMK AO2 PK WND 29033/0938 SLP099 T00720011
KNUQ - Moffett Nas/Mtn, California, USA
Distance from station: N 14km
Actualización: 25/01/2021 11:10
Muy nuboso
Muy nuboso
 Viento del O
Viento: O 20 km/h, Racha: 33 km/h
Temperatura: 8°C
Wind Chill: 4°C
Rocío: 2°C
Humedad: 66%
Barómetro: 1009.8 hPa
Clouds: Muy nuboso
Visibility: 16 km
Cloud details: Parcialmente nuboso 792 m
Muy nuboso 945 m
2021/01/25 10:10 KNUQ 251010Z AUTO 28011G18KT 10SM SCT026 BKN031 08/02 A2982 RMK AO2
 
KPAO - Palo Alto, California, USA
Distance from station: NNO 23km
Actualización: 25/01/2021 05:47
NOT Current
Rain showers, Cubierto
Rain showers, Cubierto
 Viento del ONO
Viento: ONO 30 km/h, Racha: 43 km/h
Temperatura: 8°C
Wind Chill: 4°C
Rocío: 5°C
Humedad: 82%
Barómetro: 1011.2 hPa
Resumen: Rain Showers
Clouds: Cubierto
Visibility: 16 km
Cloud details: Parcialmente nuboso 610 m
Muy nuboso 1067 m
Cubierto 1524 m
2021/01/25 04:47 KPAO 250447Z 30016G23KT 10SM SHRA SCT020 BKN035 OVC050 08/05 A2986 RMK LAST
KRHV - San Jose/Reid, California, USA
Distance from station: ENE 19km
Actualización: 25/01/2021 06:50
NOT Current
Muy nuboso
Muy nuboso
 Viento del ONO
Viento: ONO 13 km/h
Temperatura: 8°C
Wind Chill: 6°C
Rocío: 4°C
Humedad: 76%
Barómetro: 1011.2 hPa
Clouds: Muy nuboso
Visibility: 16 km
Cloud details: Parcialmente nuboso 762 m
Muy nuboso 1219 m
2021/01/25 05:50 KRHV 250550Z 30007KT 10SM SCT025 BKN040 08/04 A2986 RMK LAST
 
KOAK - Oakland, California, USA
Distance from station: NNO 50km
Actualización: 25/01/2021 10:53
Few Clouds
Few Clouds
 Viento del NO
Viento: NO 26 km/h, Racha: 39 km/h
Temperatura: 9°C
Wind Chill: 6°C
Rocío: 1°C
Humedad: 58%
Barómetro: 1010.2 hPa
Clouds: Few Clouds
Visibility: 16 km
Cloud details: Few Clouds 305 m
Few Clouds 732 m
2021/01/25 09:53 KOAK 250953Z 31014G21KT 10SM FEW010 FEW024 09/01 A2983 RMK AO2 SLP101 T00940011
KSQL - San Carlos Airpo, California, USA
Distance from station: NO 34km
Actualización: 25/01/2021 11:15
Few Clouds
Few Clouds
 
Temperatura: 8°C
Rocío: 3°C
Humedad: 71%
Barómetro: 1010.5 hPa
Clouds: Few Clouds
Visibility: 16 km
Cloud details: Few Clouds 732 m
2021/01/25 10:15 KSQL 251015Z AUTO 10SM FEW024 08/03 A2984 RMK AO2
 
KSFO - San Francisco, California, USA
Distance from station: NO 49km
Actualización: 25/01/2021 10:56
Few Clouds
Few Clouds
 Viento del ONO
Viento: ONO 31 km/h, Racha: 54 km/h
Temperatura: 9°C
Wind Chill: 5°C
Rocío: 2°C
Humedad: 62%
Barómetro: 1010.2 hPa
Clouds: Few Clouds
Visibility: 16 km
Cloud details: Few Clouds 853 m
2021/01/25 09:56 KSFO 250956Z 30017G29KT 10SM FEW028 09/02 A2983 RMK AO2 PK WND 30031/0929 SLP101 T00890022 $
KE16 - San Martin, California, USA
Distance from station: ESE 43km
Actualización: 25/01/2021 11:15
Cubierto
Cubierto
 Viento del NNO
Viento: NNO 11 km/h
Temperatura: 6°C
Wind Chill: 4°C
Rocío: 2°C
Humedad: 76%
Barómetro: 1010.8 hPa
Clouds: Cubierto
Visibility: 16 km
Cloud details: Cubierto 1158 m
2021/01/25 10:15 KE16 251015Z AUTO 33006KT 10SM OVC038 06/02 A2985 RMK AO2
 
KWVI - Watsonville, California, USA
Distance from station: SSE 44km
Actualización: 25/01/2021 10:53
Despejado
Despejado
 Viento del O
Viento: O 13 km/h
Temperatura: 6°C
Wind Chill: 3°C
Rocío: 2°C
Humedad: 76%
Barómetro: 1010.5 hPa
Clouds: Despejado
Visibility: 16 km
2021/01/25 09:53 KWVI 250953Z AUTO 26007KT 10SM CLR 06/02 A2984 RMK AO2 SLP106 T00610017
KHAF - Half Moon Bay, California, USA
Distance from station: ONO 50km
Actualización: 25/01/2021 11:15
Muy nuboso
Muy nuboso
 Viento del NNO
Viento: NNO 33 km/h, Racha: 48 km/h
Temperatura: 8°C
Wind Chill: 3°C
Rocío: 2°C
Humedad: 66%
Barómetro: 1011.2 hPa
Clouds: Muy nuboso
Visibility: 14 km
Cloud details: Parcialmente nuboso 1006 m
Parcialmente nuboso 1372 m
Muy nuboso 2438 m
2021/01/25 10:15 KHAF 251015Z AUTO 33018G26KT 9SM SCT033 SCT045 BKN080 08/02 A2986 RMK AO2
 
KHWD - Hayward, California, USA
Distance from station: N 44km
Actualización: 25/01/2021 10:54
Despejado
Despejado
 Viento del ONO
Viento: ONO 28 km/h, Racha: 48 km/h
Temperatura: 7°C
Wind Chill: 3°C
Rocío: 0°C
Humedad: 61%
Barómetro: 1009.5 hPa
Clouds: Despejado
Visibility: 16 km
2021/01/25 09:54 KHWD 250954Z AUTO 30015G26KT 10SM CLR 07/00 A2981 RMK AO2 PK WND 28026/0945 SLP102 T00720000
KLVK - Livermore, California, USA
Distance from station: NNE 51km
Actualización: 25/01/2021 10:53
Despejado
Despejado
 Viento del O
Viento: O 20 km/h
Temperatura: 4°C
Wind Chill: -1°C
Rocío: 1°C
Humedad: 81%
Barómetro: 1009.1 hPa
Clouds: Despejado
Visibility: 16 km
2021/01/25 09:53 KLVK 250953Z AUTO 27011KT 10SM CLR 04/01 A2980 RMK AO2 SLP090 T00440006